Acme, WA

5:50 PM PST on December 20, 2014 (GMT -0800)
Sudden Valley/Lake Whatcom | Change Station
CLOSE
Current Station
Personal Weather Station
Location: Bellingham, WA
Elevation: 648 ft
Nearby Weather Stations

Elev 648 ft 48.70 °N, 122.32 °W | Updated 5 seconds ago

Rain
Rain
48.2 °F
Feels Like 48 °F
N
0.0
Wind Variable Wind from NNW
Gusts 5.0 mph

Today
High -- | Low -- °F
--% Chance of Precip.
Yesterday
High -- | Low -- °F
Precip. -- in
7:58 AM 4:14 PM
Waning Crescent, 1% visible
Pressure 29.38 in
Visibility 7.0 miles
Clouds Mostly Cloudy 2400 ft
Overcast 6000 ft
Windchill 48 °F
Dew Point 47 °F
Humidity 97%
Rainfall 0.05 in
Snow Depth Not available.
UV 0 out of 12
Pollen .40 out of 12
Air Quality Not available.
Flu Activity Not available.
METAR KBLI 210053Z 14014G22KT 7SM -RA BKN024 OVC060 11/07 A2936 RMK AO2 PK WND 14028/0043 RAB17 SLP948 P0001 T01060072

More Conditions Fewer Conditions

Pressure 29.38 in
Visibility 7.0 miles
Clouds Mostly Cloudy 2400 ft
Overcast 6000 ft
Windchill 48 °F
Dew Point 47 °F
Humidity 97%
Rainfall 0.05 in
Snow Depth Not available.
UV 0 out of 12
Pollen .40 out of 12
Air Quality Not available.
Flu Activity Not available.
METAR KBLI 210053Z 14014G22KT 7SM -RA BKN024 OVC060 11/07 A2936 RMK AO2 PK WND 14028/0043 RAB17 SLP948 P0001 T01060072

More Conditions Fewer Conditions

10-Day Weather Forecast

Almanac

Astronomy

Dec. 20, 2014 Rise Set
Actual Time
Civil Twilight
Nautical Twilight
Astronomical Twilight
Moon
Length of Visible Light
Length of Day
Tomorrow will be .
, % of the Moon is Illuminated

Today's Extremes

State Highs State Lows

Community

WunderPhotos

Upload Photos

1,779,339 photos uploaded!

WunderBlogs® & News

Nearby

Air Quality

  Air Quality AQ Index Pollutant
Not available.

Snow Depth

Station Depth Elevation

Earthquake Activity

City Distance Mag. Time & Date
Minimum magnitude displayed is 2.5.

Coastal Water Temperatures

Place Temperature

Nearby Weather Stations